createdAt,value
2023-04-09T00:00:47.399Z,101165.09
2023-04-09T00:03:14.131Z,101158.06
2023-04-09T00:05:41.027Z,101162.47
2023-04-09T00:08:07.961Z,101161.59
2023-04-09T00:10:34.648Z,101159.81
2023-04-09T00:13:01.288Z,101162.47
2023-04-09T00:15:31.195Z,101161.59
2023-04-09T00:17:58.625Z,101157.19
2023-04-09T00:20:25.408Z,101166.88
2023-04-09T00:22:52.408Z,101164.22
2023-04-09T00:25:20.065Z,101164.22
2023-04-09T00:27:47.023Z,101156.31
2023-04-09T00:30:13.736Z,101153.69
2023-04-09T00:32:40.407Z,101161.59
2023-04-09T00:35:07.311Z,101164.22
2023-04-09T00:37:34.017Z,101159.84
2023-04-09T00:40:01.022Z,101165.09
2023-04-09T00:42:27.731Z,101151.91
2023-04-09T00:44:54.351Z,101151.91
2023-04-09T00:47:21.282Z,101158.97
2023-04-09T00:49:48.322Z,101161.59
2023-04-09T00:52:14.936Z,101157.19
2023-04-09T00:54:41.615Z,101159.84
2023-04-09T00:57:08.215Z,101148.41
2023-04-09T00:59:35.153Z,101152.78
2023-04-09T01:02:01.863Z,101151.91
2023-04-09T01:04:28.523Z,101160.69
2023-04-09T01:07:20.758Z,101162.47
2023-04-09T01:09:54.619Z,101153.69
2023-04-09T01:12:54.689Z,101151.91
2023-04-09T01:15:30.433Z,101149.28
2023-04-09T01:18:02.128Z,101151.91
2023-04-09T01:20:41.498Z,101141.34
2023-04-09T01:23:11.006Z,101147.50
2023-04-09T01:26:02.670Z,101151.06
2023-04-09T01:28:35.209Z,101145.78
2023-04-09T01:31:04.321Z,101155.41
2023-04-09T01:33:31.381Z,101153.69
2023-04-09T01:35:58.021Z,101148.41
2023-04-09T01:38:25.191Z,101152.78
2023-04-09T01:40:51.881Z,101153.69
2023-04-09T01:43:18.579Z,101156.31
2023-04-09T01:45:45.546Z,101160.75
2023-04-09T01:48:15.277Z,101159.84
2023-04-09T01:50:41.919Z,101151.91
2023-04-09T01:53:08.517Z,101153.69
2023-04-09T01:55:35.454Z,101151.91
2023-04-09T01:58:02.106Z,101148.41
2023-04-09T02:00:32.587Z,101152.81
2023-04-09T02:03:07.056Z,101153.69
2023-04-09T02:05:37.322Z,101160.75
2023-04-09T02:08:03.995Z,101153.69
2023-04-09T02:10:31.560Z,101155.47
2023-04-09T02:12:58.468Z,101151.06
2023-04-09T02:15:25.146Z,101154.56
2023-04-09T02:17:52.195Z,101157.22
2023-04-09T02:20:18.982Z,101159.84
2023-04-09T02:22:46.388Z,101147.53
2023-04-09T02:25:13.170Z,101150.19
2023-04-09T02:27:39.785Z,101150.19
2023-04-09T02:30:07.104Z,101148.41
2023-04-09T02:32:34.121Z,101146.63
2023-04-09T02:35:00.921Z,101151.91
2023-04-09T02:37:27.526Z,101143.13
2023-04-09T02:39:54.192Z,101144.00
2023-04-09T02:42:21.805Z,101144.91
2023-04-09T02:44:48.447Z,101142.28
2023-04-09T02:47:15.000Z,101145.78
2023-04-09T02:49:41.634Z,101146.69
2023-04-09T02:52:10.413Z,101137.00
2023-04-09T02:54:37.086Z,101142.28
2023-04-09T02:57:03.800Z,101145.81
2023-04-09T02:59:30.429Z,101142.28
2023-04-09T03:01:57.114Z,101149.37
2023-04-09T03:04:23.962Z,101142.31
2023-04-09T03:06:51.683Z,101144.09
2023-04-09T03:09:18.280Z,101141.53
2023-04-09T03:11:44.861Z,101148.59
2023-04-09T03:14:11.491Z,101147.75
2023-04-09T03:16:38.120Z,101149.56
2023-04-09T03:19:04.761Z,101146.06
2023-04-09T03:21:32.068Z,101151.38
2023-04-09T03:23:58.746Z,101151.44
2023-04-09T03:26:25.392Z,101145.28
2023-04-09T03:28:52.157Z,101147.12
2023-04-09T03:31:19.164Z,101146.28
2023-04-09T03:33:45.878Z,101145.47
2023-04-09T03:36:12.498Z,101149.06
2023-04-09T03:38:39.173Z,101151.81
2023-04-09T03:41:05.806Z,101164.12
2023-04-09T03:43:32.448Z,101153.66
2023-04-09T03:45:59.072Z,101151.13
2023-04-09T03:48:25.652Z,101151.13
2023-04-09T03:50:53.716Z,101152.03
2023-04-09T03:53:20.300Z,101152.06
2023-04-09T03:55:47.050Z,101159.13
2023-04-09T03:58:13.662Z,101159.16
2023-04-09T04:00:40.314Z,101161.84
2023-04-09T04:03:07.217Z,101157.47
2023-04-09T04:05:36.296Z,101167.19
2023-04-09T04:08:03.054Z,101166.34
2023-04-09T04:10:29.672Z,101159.37
2023-04-09T04:12:56.268Z,101163.78
2023-04-09T04:15:22.973Z,101163.78
2023-04-09T04:17:49.635Z,101154.22
2023-04-09T04:20:16.364Z,101159.50
2023-04-09T04:22:43.018Z,101159.53
2023-04-09T04:25:10.176Z,101166.63
2023-04-09T04:27:37.202Z,101169.25
2023-04-09T04:30:04.173Z,101171.03
2023-04-09T04:32:30.824Z,101171.94
2023-04-09T04:34:57.465Z,101165.84
2023-04-09T04:37:24.169Z,101171.16
2023-04-09T04:39:50.777Z,101171.16
2023-04-09T04:42:17.418Z,101176.47
2023-04-09T04:44:44.653Z,101180.88
2023-04-09T04:47:11.267Z,101187.06
2023-04-09T04:49:37.921Z,101182.66
2023-04-09T04:52:04.664Z,101187.06
2023-04-09T04:54:31.303Z,101186.19
2023-04-09T04:56:58.039Z,101187.97
2023-04-09T04:59:24.755Z,101186.19
2023-04-09T05:01:51.422Z,101186.97
2023-04-09T05:04:18.341Z,101184.16
2023-04-09T05:06:45.005Z,101190.03
2023-04-09T05:09:11.678Z,101185.25
2023-04-09T05:11:38.276Z,101190.19
2023-04-09T05:14:06.197Z,101192.47
2023-04-09T05:16:33.276Z,101186.78
2023-04-09T05:19:00.026Z,101180.22
2023-04-09T05:21:27.670Z,101182.28
2023-04-09T05:23:54.571Z,101183.47
2023-04-09T05:26:21.825Z,101185.50
2023-04-09T05:28:48.680Z,101190.28
2023-04-09T05:31:15.751Z,101185.47
2023-04-09T05:33:42.624Z,101194.84
2023-04-09T05:36:09.283Z,101189.34
2023-04-09T05:38:35.923Z,101194.53
2023-04-09T05:41:02.546Z,101199.72
2023-04-09T05:43:29.227Z,101202.34
2023-04-09T05:45:55.998Z,101201.50
2023-04-09T05:48:22.825Z,101199.81
2023-04-09T05:50:55.468Z,101203.44
2023-04-09T05:53:22.654Z,101208.00
2023-04-09T05:55:49.416Z,101207.28
2023-04-09T05:58:16.190Z,101207.41
2023-04-09T06:00:42.799Z,101212.81
2023-04-09T06:03:09.795Z,101205.06
2023-04-09T06:05:36.842Z,101214.84
2023-04-09T06:08:03.546Z,101217.59
2023-04-09T06:10:32.531Z,101220.34
2023-04-09T06:12:59.227Z,101215.25
2023-04-09T06:15:26.479Z,101215.34
2023-04-09T06:17:53.129Z,101216.28
2023-04-09T06:20:19.867Z,101218.12
2023-04-09T06:22:46.504Z,101211.12
2023-04-09T06:25:13.340Z,101220.94
2023-04-09T06:27:39.976Z,101216.63
2023-04-09T06:30:07.377Z,101208.81
2023-04-09T06:32:43.418Z,101213.25
2023-04-09T06:35:17.999Z,101221.28
2023-04-09T06:37:44.654Z,101223.16
2023-04-09T06:40:11.785Z,101217.97
2023-04-09T06:42:38.390Z,101219.78
2023-04-09T06:45:08.612Z,101223.37
2023-04-09T06:47:38.194Z,101222.63
2023-04-09T06:50:05.695Z,101216.47
2023-04-09T06:52:32.342Z,101223.59
2023-04-09T06:54:58.960Z,101219.31
2023-04-09T06:57:26.321Z,101223.75
2023-04-09T06:59:52.937Z,101227.34
2023-04-09T07:02:19.680Z,101226.53
2023-04-09T07:04:47.491Z,101239.81
2023-04-09T07:07:14.290Z,101244.25
2023-04-09T07:09:41.027Z,101238.13
2023-04-09T07:12:07.653Z,101238.16
2023-04-09T07:14:34.477Z,101238.22
2023-04-09T07:17:01.582Z,101247.91
2023-04-09T07:19:28.228Z,101246.19
2023-04-09T07:21:55.301Z,101243.59
2023-04-09T07:24:21.985Z,101249.75
2023-04-09T07:26:49.936Z,101249.78
2023-04-09T07:29:17.906Z,101255.94
2023-04-09T07:31:44.957Z,101258.53
2023-04-09T07:34:11.593Z,101260.25
2023-04-09T07:36:38.674Z,101260.22
2023-04-09T07:39:05.345Z,101260.22
2023-04-09T07:41:32.092Z,101256.69
2023-04-09T07:43:59.293Z,101257.56
2023-04-09T07:46:25.909Z,101258.44
2023-04-09T07:48:52.956Z,101262.81
2023-04-09T07:51:20.450Z,101259.25
2023-04-09T07:53:47.200Z,101264.53
2023-04-09T07:56:13.900Z,101271.56
2023-04-09T07:58:40.634Z,101271.56
2023-04-09T08:01:07.225Z,101267.16
2023-04-09T08:03:34.164Z,101268.03
2023-04-09T08:06:01.336Z,101272.44
2023-04-09T08:08:28.016Z,101270.72
2023-04-09T08:10:54.717Z,101263.72
2023-04-09T08:13:23.989Z,101269.84
2023-04-09T08:15:50.823Z,101261.97
2023-04-09T08:18:17.481Z,101269.03
2023-04-09T08:20:45.513Z,101276.06
2023-04-09T08:23:12.621Z,101268.19
2023-04-09T08:25:39.238Z,101276.16
2023-04-09T08:28:06.488Z,101278.78
2023-04-09T08:30:34.320Z,101274.41
2023-04-09T08:33:01.960Z,101274.41
2023-04-09T08:35:30.749Z,101277.06
2023-04-09T08:37:57.645Z,101276.19
2023-04-09T08:40:24.325Z,101277.97
2023-04-09T08:42:58.254Z,101286.75
2023-04-09T08:45:24.848Z,101291.13
2023-04-09T08:47:51.806Z,101292.91
2023-04-09T08:50:18.783Z,101289.41
2023-04-09T08:52:46.423Z,101292.03
2023-04-09T08:55:13.179Z,101289.41
2023-04-09T08:57:40.073Z,101306.09
2023-04-09T09:00:07.315Z,101304.37
2023-04-09T09:02:34.152Z,101305.28
2023-04-09T09:05:01.125Z,101304.41
2023-04-09T09:07:28.391Z,101307.06
2023-04-09T09:10:00.067Z,101307.06
2023-04-09T09:12:38.533Z,101309.69
2023-04-09T09:15:28.800Z,101306.19
2023-04-09T09:17:59.961Z,101307.09
2023-04-09T09:20:27.191Z,101312.38
2023-04-09T09:22:55.745Z,101307.16
2023-04-09T09:25:26.811Z,101311.56
2023-04-09T09:27:53.890Z,101307.16
2023-04-09T09:30:27.500Z,101310.69
2023-04-09T09:33:05.881Z,101301.91
2023-04-09T09:35:48.131Z,101308.06
2023-04-09T09:38:16.011Z,101302.78
2023-04-09T09:40:42.967Z,101304.59
2023-04-09T09:43:09.650Z,101304.59
2023-04-09T09:45:39.422Z,101299.38
2023-04-09T09:48:06.386Z,101299.38
2023-04-09T09:50:33.261Z,101292.31
2023-04-09T09:53:03.323Z,101295.88
2023-04-09T09:55:33.563Z,101298.50
2023-04-09T09:58:06.184Z,101295.00
2023-04-09T10:00:33.100Z,101292.38
2023-04-09T10:03:03.754Z,101293.25
2023-04-09T10:05:30.687Z,101295.00
2023-04-09T10:07:57.953Z,101294.16
2023-04-09T10:10:25.148Z,101295.06
2023-04-09T10:12:52.148Z,101293.28
2023-04-09T10:15:19.390Z,101295.91
2023-04-09T10:17:46.723Z,101297.69
2023-04-09T10:20:18.156Z,101295.09
2023-04-09T10:22:48.850Z,101295.97
2023-04-09T10:25:15.519Z,101296.88
2023-04-09T10:27:46.098Z,101295.09
2023-04-09T10:30:33.603Z,101292.47
2023-04-09T10:33:26.301Z,101299.50
2023-04-09T10:35:54.413Z,101292.47
2023-04-09T10:38:35.671Z,101292.47
2023-04-09T10:41:16.941Z,101287.19
2023-04-09T10:43:43.635Z,101284.53
2023-04-09T10:46:31.256Z,101294.25
2023-04-09T10:49:20.789Z,101297.75
2023-04-09T10:52:11.951Z,101292.47
2023-04-09T10:54:48.488Z,101288.94
2023-04-09T10:57:16.589Z,101291.59
2023-04-09T10:59:53.622Z,101290.69
2023-04-09T11:02:38.816Z,101286.31
2023-04-09T11:05:18.161Z,101292.47
2023-04-09T11:07:47.003Z,101285.41
2023-04-09T11:10:13.591Z,101283.69
2023-04-09T11:12:40.246Z,101283.69
2023-04-09T11:15:15.349Z,101282.81
2023-04-09T11:17:41.990Z,101281.03
2023-04-09T11:20:08.921Z,101274.03
2023-04-09T11:22:35.636Z,101284.59
2023-04-09T11:25:02.980Z,101278.44
2023-04-09T11:27:29.659Z,101280.22
2023-04-09T11:29:56.587Z,101281.94
2023-04-09T11:32:23.251Z,101279.31
2023-04-09T11:34:52.745Z,101285.50
2023-04-09T11:37:19.397Z,101280.22
2023-04-09T11:39:46.220Z,101280.22
2023-04-09T11:42:16.140Z,101282.81
2023-04-09T11:44:44.897Z,101275.84
2023-04-09T11:47:12.337Z,101280.22
2023-04-09T11:49:39.270Z,101274.94
2023-04-09T11:52:06.056Z,101271.37
2023-04-09T11:54:33.629Z,101277.53
2023-04-09T11:57:01.774Z,101273.16
2023-04-09T11:59:28.376Z,101272.25
2023-04-09T12:01:55.035Z,101276.63
2023-04-09T12:04:21.729Z,101277.53
2023-04-09T12:06:48.559Z,101278.41
2023-04-09T12:09:16.165Z,101280.13
2023-04-09T12:11:46.431Z,101268.72
2023-04-09T12:14:13.996Z,101280.13
2023-04-09T12:16:46.480Z,101272.22
2023-04-09T12:19:13.521Z,101274.84
2023-04-09T12:21:47.011Z,101271.34
2023-04-09T12:24:14.389Z,101265.19
2023-04-09T12:26:40.963Z,101257.28
2023-04-09T12:29:07.608Z,101266.06
2023-04-09T12:31:34.310Z,101263.44
2023-04-09T12:34:01.022Z,101258.16
2023-04-09T12:36:29.950Z,101258.16
2023-04-09T12:38:56.761Z,101256.38
2023-04-09T12:41:23.648Z,101254.59
2023-04-09T12:43:51.028Z,101246.69
2023-04-09T12:46:19.053Z,101248.44
2023-04-09T12:48:48.727Z,101229.13
2023-04-09T12:51:15.393Z,101244.09
2023-04-09T12:53:42.019Z,101244.09
2023-04-09T12:56:08.955Z,101248.47
2023-04-09T12:58:35.696Z,101237.94
2023-04-09T13:01:04.261Z,101244.13
2023-04-09T13:03:31.154Z,101246.81
2023-04-09T13:05:57.881Z,101235.41
2023-04-09T13:08:24.531Z,101230.13
2023-04-09T13:10:51.262Z,101231.91
2023-04-09T13:13:17.964Z,101231.03
2023-04-09T13:15:45.475Z,101225.78
2023-04-09T13:18:12.889Z,101233.72
2023-04-09T13:20:39.773Z,101224.06
2023-04-09T13:23:06.462Z,101223.22
2023-04-09T13:25:33.110Z,101223.25
2023-04-09T13:27:59.778Z,101223.25
2023-04-09T13:30:26.372Z,101226.75
2023-04-09T13:32:53.140Z,101227.66
2023-04-09T13:35:19.859Z,101220.66
2023-04-09T13:37:46.513Z,101217.19
2023-04-09T13:40:13.235Z,101222.47
2023-04-09T13:42:39.869Z,101213.69
2023-04-09T13:45:07.016Z,101212.87
2023-04-09T13:47:33.676Z,101212.87
2023-04-09T13:50:00.490Z,101210.25
2023-04-09T13:52:29.649Z,101217.28
2023-04-09T13:54:56.762Z,101212.94
2023-04-09T13:57:23.389Z,101219.09
2023-04-09T13:59:50.013Z,101210.34
2023-04-09T14:02:18.225Z,101209.47
2023-04-09T14:04:45.221Z,101206.84
2023-04-09T14:07:11.947Z,101192.78
2023-04-09T14:09:38.648Z,101200.72
2023-04-09T14:12:05.438Z,101205.16
2023-04-09T14:14:32.487Z,101197.22
2023-04-09T14:17:01.737Z,101200.78
2023-04-09T14:19:28.514Z,101200.78
2023-04-09T14:21:55.806Z,101202.56
2023-04-09T14:24:23.239Z,101196.37
2023-04-09T14:26:51.475Z,101192.91
2023-04-09T14:29:18.099Z,101185.91
2023-04-09T14:31:44.789Z,101193.81
2023-04-09T14:34:11.419Z,101189.44
2023-04-09T14:36:38.048Z,101189.44
2023-04-09T14:39:04.649Z,101191.22
2023-04-09T14:41:34.149Z,101185.97
2023-04-09T14:44:00.881Z,101188.63
2023-04-09T14:46:27.677Z,101178.94
2023-04-09T14:48:54.629Z,101182.50
2023-04-09T14:51:21.648Z,101189.53
2023-04-09T14:53:48.678Z,101181.63
2023-04-09T14:56:15.413Z,101180.72
2023-04-09T14:58:42.049Z,101181.63
2023-04-09T15:01:09.081Z,101181.69
2023-04-09T15:03:36.342Z,101184.31
2023-04-09T15:06:03.305Z,101179.06
2023-04-09T15:08:29.910Z,101179.09
2023-04-09T15:10:58.755Z,101172.09
2023-04-09T15:13:25.364Z,101183.50
2023-04-09T15:15:52.061Z,101165.91
2023-04-09T15:18:20.033Z,101177.41
2023-04-09T15:20:48.558Z,101166.84
2023-04-09T15:23:15.315Z,101172.13
2023-04-09T15:25:41.968Z,101180.03
2023-04-09T15:28:08.644Z,101178.31
2023-04-09T15:30:35.774Z,101171.31
2023-04-09T15:33:02.414Z,101170.44
2023-04-09T15:35:29.463Z,101168.72
2023-04-09T15:37:59.090Z,101170.47
2023-04-09T15:40:25.840Z,101175.75
2023-04-09T15:42:52.403Z,101173.13
2023-04-09T15:45:19.105Z,101174.84
2023-04-09T15:47:46.444Z,101178.41
2023-04-09T15:50:13.548Z,101174.03
2023-04-09T15:52:40.390Z,101174.03
2023-04-09T15:55:07.283Z,101174.94
2023-04-09T15:57:33.992Z,101178.47
2023-04-09T16:00:00.683Z,101168.78
2023-04-09T16:02:27.481Z,101171.44
2023-04-09T16:04:54.284Z,101174.97
2023-04-09T16:07:21.093Z,101167.12
2023-04-09T16:09:47.811Z,101167.97
2023-04-09T16:12:14.534Z,101165.34
2023-04-09T16:14:41.246Z,101176.78
2023-04-09T16:17:08.088Z,101173.28
2023-04-09T16:19:34.693Z,101180.34
2023-04-09T16:22:01.743Z,101173.28
2023-04-09T16:24:28.607Z,101183.88
2023-04-09T16:26:56.451Z,101175.09
2023-04-09T16:29:23.130Z,101178.66
2023-04-09T16:31:49.800Z,101176.00
2023-04-09T16:34:16.602Z,101177.78
2023-04-09T16:36:44.626Z,101176.88
2023-04-09T16:39:11.311Z,101173.38
2023-04-09T16:41:38.230Z,101176.94
2023-04-09T16:44:04.854Z,101173.41
2023-04-09T16:46:31.546Z,101174.28
2023-04-09T16:48:58.180Z,101176.97
2023-04-09T16:51:24.819Z,101178.72
2023-04-09T16:53:53.983Z,101183.09
2023-04-09T16:56:21.529Z,101181.38
2023-04-09T16:58:48.434Z,101185.78
2023-04-09T17:01:15.506Z,101176.16
2023-04-09T17:03:42.262Z,101177.03
2023-04-09T17:06:09.030Z,101179.69
2023-04-09T17:08:35.868Z,101170.91
2023-04-09T17:11:02.732Z,101180.59
2023-04-09T17:13:30.324Z,101181.47
2023-04-09T17:15:57.356Z,101171.81
2023-04-09T17:18:24.158Z,101181.50
2023-04-09T17:20:51.060Z,101181.50
2023-04-09T17:23:17.756Z,101183.25
2023-04-09T17:25:47.151Z,101186.81
2023-04-09T17:28:13.888Z,101180.62
2023-04-09T17:30:40.525Z,101187.72
2023-04-09T17:33:07.237Z,101186.81
2023-04-09T17:35:34.233Z,101191.22
2023-04-09T17:38:01.715Z,101180.72
2023-04-09T17:40:28.401Z,101187.72
2023-04-09T17:42:55.610Z,101193.88
2023-04-09T17:45:22.260Z,101186.00
2023-04-09T17:47:51.030Z,101194.75
2023-04-09T17:50:17.907Z,101193.91
2023-04-09T17:52:44.566Z,101192.16
2023-04-09T17:55:14.930Z,101198.31
2023-04-09T17:57:41.806Z,101200.94
2023-04-09T18:00:09.510Z,101202.72
2023-04-09T18:02:36.728Z,101212.38
2023-04-09T18:05:07.278Z,101211.53
2023-04-09T18:07:34.211Z,101208.91
2023-04-09T18:10:01.984Z,101219.47
2023-04-09T18:12:28.701Z,101212.44
2023-04-09T18:14:55.565Z,101220.34
2023-04-09T18:17:22.260Z,101219.47
2023-04-09T18:19:49.208Z,101213.37
2023-04-09T18:22:16.619Z,101225.62
2023-04-09T18:24:43.368Z,101227.44
2023-04-09T18:27:10.167Z,101224.81
2023-04-09T18:29:36.824Z,101231.84
2023-04-09T18:32:03.453Z,101231.84
2023-04-09T18:34:30.165Z,101230.09
2023-04-09T18:36:57.062Z,101234.50
2023-04-09T18:39:23.854Z,101234.50
2023-04-09T18:41:50.725Z,101231.88
2023-04-09T18:44:17.548Z,101236.28
2023-04-09T18:46:44.371Z,101235.41
2023-04-09T18:49:11.325Z,101238.06
2023-04-09T18:51:38.065Z,101236.28
2023-04-09T18:54:04.762Z,101237.19
2023-04-09T18:56:31.437Z,101242.47
2023-04-09T18:58:58.094Z,101242.47
2023-04-09T19:01:24.869Z,101241.62
2023-04-09T19:03:51.871Z,101241.62
2023-04-09T19:06:19.354Z,101250.44
2023-04-09T19:08:46.551Z,101247.81
2023-04-09T19:11:13.900Z,101240.78
2023-04-09T19:13:40.564Z,101247.84
2023-04-09T19:16:09.369Z,101251.34
2023-04-09T19:18:37.042Z,101251.34
2023-04-09T19:21:04.085Z,101253.97
2023-04-09T19:23:30.750Z,101258.38
2023-04-09T19:25:57.580Z,101251.38
2023-04-09T19:28:24.224Z,101260.19
2023-04-09T19:30:52.433Z,101254.91
2023-04-09T19:33:22.956Z,101247.03
2023-04-09T19:35:49.952Z,101253.19
2023-04-09T19:38:17.471Z,101256.69
2023-04-09T19:40:44.481Z,101246.19
2023-04-09T19:43:11.301Z,101245.31
2023-04-09T19:45:38.665Z,101243.59
2023-04-09T19:48:06.066Z,101246.22
2023-04-09T19:50:37.884Z,101253.25
2023-04-09T19:53:06.067Z,101250.66
2023-04-09T19:55:36.063Z,101246.25
2023-04-09T19:58:03.158Z,101246.25
2023-04-09T20:00:29.794Z,101248.03
2023-04-09T20:02:57.423Z,101248.03
2023-04-09T20:05:24.234Z,101252.41
2023-04-09T20:07:51.465Z,101252.41
2023-04-09T20:10:18.245Z,101255.97
2023-04-09T20:12:51.294Z,101252.47
2023-04-09T20:15:20.069Z,101253.34
2023-04-09T20:17:50.571Z,101255.13
2023-04-09T20:20:19.782Z,101256.84
2023-04-09T20:22:55.621Z,101255.13
2023-04-09T20:25:22.963Z,101255.13
2023-04-09T20:27:49.672Z,101258.66
2023-04-09T20:30:17.032Z,101257.78
2023-04-09T20:32:43.861Z,101263.06
2023-04-09T20:35:12.778Z,101257.81
2023-04-09T20:37:39.352Z,101265.72
2023-04-09T20:40:06.808Z,101263.97
2023-04-09T20:42:33.523Z,101257.84
2023-04-09T20:45:01.775Z,101257.00
2023-04-09T20:47:28.782Z,101257.88
2023-04-09T20:49:59.718Z,101257.88
2023-04-09T20:52:29.729Z,101257.03
2023-04-09T20:54:57.073Z,101253.50
2023-04-09T20:57:23.883Z,101255.25
2023-04-09T20:59:52.975Z,101261.44
2023-04-09T21:02:19.841Z,101257.91
2023-04-09T21:04:46.707Z,101254.41
2023-04-09T21:07:13.429Z,101252.69
2023-04-09T21:09:40.341Z,101261.47
2023-04-09T21:12:07.308Z,101255.31
2023-04-09T21:14:33.936Z,101259.72
2023-04-09T21:17:00.721Z,101254.47
2023-04-09T21:19:27.536Z,101250.97
2023-04-09T21:21:54.290Z,101254.47
2023-04-09T21:24:20.931Z,101249.22
2023-04-09T21:26:51.165Z,101247.50
2023-04-09T21:29:20.388Z,101252.75
2023-04-09T21:31:48.055Z,101250.13
2023-04-09T21:34:14.695Z,101248.38
2023-04-09T21:36:41.391Z,101251.06
2023-04-09T21:39:08.005Z,101250.19
2023-04-09T21:41:34.657Z,101252.81
2023-04-09T21:44:07.979Z,101251.94
2023-04-09T21:46:36.791Z,101242.28
2023-04-09T21:49:04.012Z,101250.19
2023-04-09T21:51:31.475Z,101247.56
2023-04-09T21:54:08.664Z,101252.84
2023-04-09T21:56:35.874Z,101244.09
2023-04-09T21:59:02.790Z,101259.00
2023-04-09T22:01:31.493Z,101254.66
2023-04-09T22:03:59.152Z,101257.28
2023-04-09T22:06:27.304Z,101256.41
2023-04-09T22:08:56.753Z,101260.81
2023-04-09T22:11:26.845Z,101263.44
2023-04-09T22:13:53.845Z,101260.81
2023-04-09T22:16:20.610Z,101261.72
2023-04-09T22:18:47.435Z,101260.84
2023-04-09T22:21:17.482Z,101264.37
2023-04-09T22:23:44.154Z,101262.59
2023-04-09T22:26:10.836Z,101261.75
2023-04-09T22:28:38.511Z,101268.78
2023-04-09T22:31:05.906Z,101263.50
2023-04-09T22:33:32.876Z,101266.12
2023-04-09T22:35:59.780Z,101262.66
2023-04-09T22:38:26.532Z,101267.03
2023-04-09T22:40:53.108Z,101267.94
2023-04-09T22:43:19.866Z,101269.69
2023-04-09T22:45:51.623Z,101269.69
2023-04-09T22:48:18.797Z,101263.56
2023-04-09T22:50:45.995Z,101266.19
2023-04-09T22:53:12.873Z,101262.72
2023-04-09T22:55:39.712Z,101263.63
2023-04-09T22:58:06.452Z,101258.38
2023-04-09T23:00:33.149Z,101262.75
2023-04-09T23:03:00.088Z,101272.38
2023-04-09T23:05:26.874Z,101267.13
2023-04-09T23:07:53.623Z,101268.88
2023-04-09T23:10:20.395Z,101268.91
2023-04-09T23:12:46.988Z,101265.41
2023-04-09T23:15:13.617Z,101265.41
2023-04-09T23:17:42.153Z,101268.06
2023-04-09T23:20:11.322Z,101268.94
2023-04-09T23:22:37.944Z,101266.31
2023-04-09T23:25:04.784Z,101261.94
2023-04-09T23:27:31.482Z,101261.09
2023-04-09T23:29:58.233Z,101259.31
2023-04-09T23:32:25.048Z,101259.34
2023-04-09T23:34:51.739Z,101262.84
2023-04-09T23:37:19.089Z,101253.22
2023-04-09T23:39:48.821Z,101254.09
2023-04-09T23:42:15.657Z,101257.63
2023-04-09T23:44:43.944Z,101249.72
2023-04-09T23:47:11.263Z,101247.97
2023-04-09T23:49:38.137Z,101247.16
2023-04-09T23:52:04.967Z,101252.41
2023-04-09T23:54:32.719Z,101250.66
2023-04-09T23:56:59.722Z,101253.28
2023-04-09T23:59:26.429Z,101255.91
